KCPR/CPR METAR and TAF weather

Enter ICAO airport designator
Station Type Date Time Source
KCPR METAR 2021/04/13 20:53 UTC NOAA

KCPR 132053Z 03010KT 10SM BKN045 01/M10 A3018 RMK AO2 SLP248 T00111100 57020 $


Station Type Date Time Source
KCPR Decoded METAR 2021/04/13 20:53 UTC NOAA

NATRONA COUNTY INTERNATIONAL AIRPORT , WY, United States (KCPR) 42-54N 106-28W 1621M
Apr 13, 2021 - 04:53 PM EDT / 2021.04.13 2053 UTC
Wind: from the NNE (030 degrees) at 12 MPH (10 KT):0
Visibility: 10 mile(s):0
Sky conditions: mostly cloudy
Temperature: 34.0 F (1.1 C)
Windchill: 24 F (-4 C):1
Dew Point: 14.0 F (-10.0 C)
Relative Humidity: 43%
Pressure (altimeter): 30.18 in. Hg (1022 hPa)
Pressure tendency: 0.06 inches (2.0 hPa) lower than three hours ago
ob: KCPR 132053Z 03010KT 10SM BKN045 01/M10 A3018 RMK AO2 SLP248 T00111100 57020
cycle: 21

Station Type Date Time Source
KCPR TAF 2021/04/13 18:42 UTC NOAA

TAF KCPR 131739Z 1318/1418 04012G18KT P6SM BKN120
FM140600 05014G20KT P6SM VCSH OVC040

Example: see airport list